Terminal Aerodrome Forecast
Issued by NWS

Home | Current Version | Previous Version | Graphics & Text | Print | Product List | Glossary Off
Versions: 1 2 3 4 5 6 7 8 9 10 11 12 13 14 15 16 17

681
FTUS45 KGGW 240229 AAA
TAFSDY
TAF AMD
KSDY 240229Z 2402/2424 02007KT P6SM VCSH OVC025
      TEMPO 2402/2406 03005KT 6SM -SN SCT025 BKN070
     FM240600 00000KT P6SM OVC009
     FM241200 32006KT P6SM BKN015
     FM242000 31012KT P6SM BKN015=

USA.gov is the U.S. government's official web portal to all federal, state and local government web resources and services.